Time;durP1;ratioP1;P1;durP2;ratioP2;P2;SDS_P1;SDS_P2;PMS_P1;PMS_P2;Temp;Humidity;BMP_temperature;BMP_pressure;BME280_temperature;BME280_humidity;BME280_pressure;Samples;Min_cycle;Max_cycle;Signal;HPM_P1;HPM_P2
2022/05/02 00:00:55;;;;;;;1.60;1.50;;;18.70;51.10;;;;;;4960348;28;20195;-92
2022/05/02 00:03:21;;;;;;;1.67;1.50;;;18.80;51.20;;;;;;4960456;28;20185;-92
2022/05/02 00:05:47;;;;;;;1.50;1.40;;;18.70;51.10;;;;;;4960477;28;20190;-92
2022/05/02 00:08:13;;;;;;;1.50;1.40;;;18.70;51.10;;;;;;4959668;28;20210;-92
2022/05/02 00:10:39;;;;;;;1.50;1.40;;;18.70;51.10;;;;;;4958228;28;20530;-92
2022/05/02 00:13:09;;;;;;;1.70;1.60;;;18.70;51.10;;;;;;4959105;28;20309;-92
2022/05/02 00:15:37;;;;;;;1.77;1.40;;;18.70;51.10;;;;;;4958205;28;20179;-92
2022/05/02 00:18:04;;;;;;;1.90;1.50;;;18.70;51.20;;;;;;4958838;28;20561;-91
2022/05/02 00:20:35;;;;;;;1.40;1.30;;;18.70;51.10;;;;;;4957690;28;20174;-92
2022/05/02 00:23:04;;;;;;;1.70;1.60;;;18.60;51.10;;;;;;4960128;28;20278;-92
2022/05/02 00:25:30;;;;;;;1.73;1.57;;;18.60;51.10;;;;;;4958641;28;20190;-92
2022/05/02 00:27:57;;;;;;;2.07;1.60;;;18.60;51.10;;;;;;4958623;28;20214;-91
2022/05/02 00:30:24;;;;;;;2.03;1.90;;;18.60;51.10;;;;;;4960286;28;20308;-93
2022/05/02 00:32:50;;;;;;;1.50;1.40;;;18.60;51.10;;;;;;4958120;28;20186;-92
2022/05/02 00:35:15;;;;;;;1.87;1.70;;;18.60;51.10;;;;;;4957923;28;20444;-92
2022/05/02 00:37:42;;;;;;;1.50;1.40;;;18.60;51.10;;;;;;4958726;28;20188;-92
2022/05/02 00:40:11;;;;;;;2.00;1.47;;;18.60;51.10;;;;;;4959289;28;20177;-92
2022/05/02 00:42:37;;;;;;;1.60;1.50;;;18.60;51.00;;;;;;4960549;28;20184;-92
2022/05/02 00:45:08;;;;;;;1.60;1.50;;;18.50;51.00;;;;;;4960304;28;20170;-92
2022/05/02 00:47:34;;;;;;;3.00;1.70;;;18.50;51.00;;;;;;4960402;28;20244;-93
2022/05/02 00:50:05;;;;;;;1.63;1.50;;;18.50;51.00;;;;;;4960116;28;20447;-92
2022/05/02 00:52:30;;;;;;;1.70;1.60;;;18.50;51.00;;;;;;4960228;28;20178;-93
2022/05/02 00:54:57;;;;;;;1.80;1.70;;;18.50;51.00;;;;;;4959102;28;20453;-92
2022/05/02 00:57:23;;;;;;;1.50;1.40;;;18.50;51.00;;;;;;4975326;28;20198;-92
2022/05/02 00:59:49;;;;;;;1.70;1.60;;;18.50;51.00;;;;;;4958320;28;20189;-92
2022/05/02 01:02:15;;;;;;;1.60;1.50;;;18.50;51.00;;;;;;4957458;28;20248;-91
2022/05/02 01:04:42;;;;;;;1.90;1.60;;;18.50;51.00;;;;;;4958994;28;20186;-91
2022/05/02 01:07:08;;;;;;;1.63;1.53;;;18.40;51.00;;;;;;4959140;28;20232;-91
2022/05/02 01:09:35;;;;;;;1.70;1.60;;;18.40;51.00;;;;;;4958791;28;20220;-91
2022/05/02 01:12:01;;;;;;;1.47;1.37;;;18.40;51.00;;;;;;4963697;28;20178;-91
2022/05/02 01:14:27;;;;;;;1.97;1.50;;;18.40;51.00;;;;;;4960404;28;20188;-91
2022/05/02 01:16:53;;;;;;;1.47;1.37;;;18.40;51.00;;;;;;4959089;28;20185;-91
2022/05/02 01:19:19;;;;;;;1.60;1.50;;;18.40;51.00;;;;;;4958232;28;20179;-91
2022/05/02 01:21:45;;;;;;;1.70;1.60;;;18.40;51.00;;;;;;4957755;28;20228;-91
2022/05/02 01:24:10;;;;;;;1.80;1.70;;;18.40;51.00;;;;;;4958022;28;20183;-90
2022/05/02 01:26:37;;;;;;;2.17;1.47;;;18.40;51.00;;;;;;4959359;28;20187;-91
2022/05/02 01:29:03;;;;;;;1.60;1.50;;;18.30;51.00;;;;;;4959361;28;20571;-91
2022/05/02 01:31:29;;;;;;;1.40;1.30;;;18.30;51.00;;;;;;4976047;28;20172;-91
2022/05/02 01:33:55;;;;;;;1.37;1.27;;;18.30;50.90;;;;;;4959112;28;20190;-91
2022/05/02 01:36:22;;;;;;;1.70;1.40;;;18.30;50.90;;;;;;4959238;28;20228;-92
2022/05/02 01:38:48;;;;;;;1.40;1.30;;;18.30;50.90;;;;;;4959375;28;20512;-91
2022/05/02 01:41:14;;;;;;;1.40;1.30;;;18.30;50.90;;;;;;4958473;28;20214;-91
2022/05/02 01:43:42;;;;;;;2.33;1.53;;;18.30;50.90;;;;;;4957331;28;20534;-92
2022/05/02 01:46:09;;;;;;;1.47;1.37;;;18.30;50.90;;;;;;4959172;28;20327;-91
2022/05/02 01:48:35;;;;;;;1.47;1.37;;;18.30;50.90;;;;;;4959573;28;20276;-92
2022/05/02 01:51:01;;;;;;;1.33;1.23;;;18.30;50.90;;;;;;4959072;28;20175;-92
2022/05/02 01:53:28;;;;;;;1.50;1.40;;;18.30;50.90;;;;;;4974715;28;20240;-92
2022/05/02 01:55:54;;;;;;;1.97;1.60;;;18.30;50.90;;;;;;4958786;28;20494;-92
2022/05/02 01:58:21;;;;;;;1.67;1.50;;;18.20;50.90;;;;;;4976148;28;20576;-92
2022/05/02 02:00:47;;;;;;;1.57;1.47;;;18.20;50.90;;;;;;4959216;28;20182;-92
2022/05/02 02:03:13;;;;;;;1.97;1.60;;;18.20;50.80;;;;;;4958001;28;20186;-91
2022/05/02 02:05:48;;;;;;;2.27;1.60;;;18.20;50.90;;;;;;4958525;28;20254;-92
2022/05/02 02:08:16;;;;;;;1.50;1.40;;;18.20;50.90;;;;;;4974940;28;20297;-91
2022/05/02 02:10:43;;;;;;;1.53;1.43;;;18.20;50.80;;;;;;4973756;28;20563;-91
2022/05/02 02:13:10;;;;;;;1.50;1.40;;;18.20;50.80;;;;;;4958805;28;20191;-91
2022/05/02 02:15:36;;;;;;;1.40;1.30;;;18.20;50.90;;;;;;4957832;28;20178;-91
2022/05/02 02:18:02;;;;;;;1.70;1.50;;;18.20;50.80;;;;;;4958973;28;20275;-91
2022/05/02 02:20:28;;;;;;;1.57;1.47;;;18.20;50.80;;;;;;4958483;28;20483;-91
2022/05/02 02:22:55;;;;;;;1.50;1.40;;;18.20;50.80;;;;;;4959062;28;20182;-91
2022/05/02 02:25:21;;;;;;;1.70;1.60;;;18.10;50.70;;;;;;4958503;28;20186;-90
2022/05/02 02:27:47;;;;;;;1.70;1.60;;;18.10;50.80;;;;;;4957087;28;20186;-91
2022/05/02 02:30:14;;;;;;;1.50;1.40;;;18.10;50.80;;;;;;4958808;28;20184;-91
2022/05/02 02:32:41;;;;;;;1.40;1.30;;;18.10;50.80;;;;;;4956815;28;20185;-91
2022/05/02 02:35:07;;;;;;;2.03;1.40;;;18.10;50.80;;;;;;4957682;28;20198;-91
2022/05/02 02:37:33;;;;;;;1.53;1.43;;;18.10;50.80;;;;;;4959019;28;20192;-91
2022/05/02 02:39:59;;;;;;;1.60;1.37;;;18.10;50.80;;;;;;4958505;28;20186;-91
2022/05/02 02:42:25;;;;;;;1.83;1.50;;;18.10;50.80;;;;;;4958363;28;20352;-91
2022/05/02 02:44:51;;;;;;;1.60;1.50;;;18.10;50.80;;;;;;4975269;28;20171;-92
2022/05/02 02:47:17;;;;;;;1.50;1.40;;;18.00;50.80;;;;;;4956594;28;20291;-92
2022/05/02 02:49:43;;;;;;;2.20;1.33;;;18.10;50.80;;;;;;4955113;28;20324;-92
2022/05/02 02:52:09;;;;;;;1.47;1.37;;;18.00;50.80;;;;;;4955878;28;20191;-91
2022/05/02 02:54:35;;;;;;;1.50;1.40;;;18.00;50.80;;;;;;4956331;28;20520;-92
2022/05/02 02:57:01;;;;;;;2.53;1.40;;;18.00;50.80;;;;;;4957456;28;20182;-91
2022/05/02 02:59:27;;;;;;;1.50;1.40;;;18.00;50.80;;;;;;4957602;28;20191;-92
2022/05/02 03:01:56;;;;;;;1.40;1.30;;;18.00;50.80;;;;;;4958077;28;20183;-92
2022/05/02 03:07:06;;;;;;;2.43;1.70;;;18.00;50.80;;;;;;4974540;28;20184;-92
2022/05/02 03:09:32;;;;;;;2.37;1.40;;;18.00;50.80;;;;;;4957759;28;20217;-92
2022/05/02 03:11:58;;;;;;;1.53;1.43;;;18.00;50.80;;;;;;4956246;28;20179;-92
2022/05/02 03:14:24;;;;;;;1.50;1.37;;;18.00;50.80;;;;;;4956668;28;20221;-92
2022/05/02 03:16:49;;;;;;;1.97;1.30;;;18.00;50.80;;;;;;4957020;28;20212;-92
2022/05/02 03:19:15;;;;;;;1.47;1.37;;;17.90;50.70;;;;;;4958566;28;20466;-92
2022/05/02 03:21:41;;;;;;;2.33;1.50;;;17.90;50.70;;;;;;4957099;28;20193;-91
2022/05/02 03:24:07;;;;;;;1.50;1.40;;;17.90;50.70;;;;;;4956561;28;20183;-92
2022/05/02 03:26:33;;;;;;;1.57;1.37;;;17.90;50.80;;;;;;4958744;28;20193;-91
2022/05/02 03:28:58;;;;;;;1.70;1.60;;;17.90;50.80;;;;;;4960426;28;20448;-92
2022/05/02 03:31:27;;;;;;;1.63;1.50;;;17.90;50.80;;;;;;4960846;28;20233;-91
2022/05/02 03:33:52;;;;;;;1.60;1.50;;;17.90;50.80;;;;;;4959450;28;20185;-92
2022/05/02 03:36:18;;;;;;;1.53;1.30;;;17.90;50.80;;;;;;4958290;28;20197;-92
2022/05/02 03:38:44;;;;;;;1.67;1.57;;;17.90;50.80;;;;;;4959230;28;20181;-91
2022/05/02 03:41:09;;;;;;;1.83;1.50;;;17.90;50.80;;;;;;4959896;28;20182;-92
2022/05/02 03:43:36;;;;;;;1.50;1.40;;;17.80;50.80;;;;;;4976953;28;20181;-92
2022/05/02 03:46:02;;;;;;;1.40;1.30;;;17.80;50.80;;;;;;4960676;28;20174;-92
2022/05/02 03:48:28;;;;;;;1.60;1.50;;;17.80;50.80;;;;;;4960406;28;20572;-91
2022/05/02 03:50:54;;;;;;;1.73;1.60;;;17.80;50.80;;;;;;4960166;28;20177;-92
2022/05/02 03:53:20;;;;;;;1.40;1.30;;;17.80;50.80;;;;;;4959962;28;20243;-92
2022/05/02 03:55:47;;;;;;;3.17;1.57;;;17.80;50.80;;;;;;4975054;28;20193;-92
2022/05/02 03:58:13;;;;;;;2.50;1.60;;;17.70;50.80;;;;;;4959359;28;20782;-92
2022/05/02 04:00:39;;;;;;;2.17;1.40;;;17.70;50.80;;;;;;4958690;28;20177;-92
2022/05/02 04:03:05;;;;;;;2.47;1.47;;;17.70;50.80;;;;;;4959278;28;20336;-92
2022/05/02 04:05:31;;;;;;;1.50;1.40;;;17.70;50.80;;;;;;4960808;28;20184;-92
2022/05/02 04:07:57;;;;;;;1.73;1.60;;;17.70;50.80;;;;;;4960006;28;20213;-92
2022/05/02 04:10:23;;;;;;;1.50;1.40;;;17.70;51.20;;;;;;4959692;28;20178;-93
2022/05/02 04:12:49;;;;;;;1.83;1.60;;;17.70;50.80;;;;;;4959330;28;20625;-92
2022/05/02 04:15:15;;;;;;;1.90;1.43;;;17.70;50.90;;;;;;4959656;28;20287;-92
2022/05/02 04:17:41;;;;;;;2.07;1.50;;;17.70;50.80;;;;;;4959470;28;20331;-92
2022/05/02 04:20:08;;;;;;;1.60;1.50;;;17.70;50.80;;;;;;4959027;28;20344;-92
2022/05/02 04:22:36;;;;;;;1.70;1.60;;;17.70;50.90;;;;;;4959697;28;20178;-91
2022/05/02 04:25:03;;;;;;;1.53;1.43;;;17.70;50.80;;;;;;4959511;28;20457;-91
2022/05/02 04:27:29;;;;;;;2.00;1.47;;;17.70;50.80;;;;;;4959783;28;20522;-91
2022/05/02 04:29:54;;;;;;;1.53;1.43;;;17.60;50.80;;;;;;4958731;28;20671;-91
2022/05/02 04:32:20;;;;;;;1.33;1.23;;;17.60;50.80;;;;;;4958700;28;20178;-91
2022/05/02 04:34:46;;;;;;;1.50;1.33;;;17.60;50.80;;;;;;4957854;28;20581;-91
2022/05/02 04:37:12;;;;;;;1.60;1.50;;;17.60;50.80;;;;;;4956875;28;20219;-91
2022/05/02 04:39:38;;;;;;;1.87;1.63;;;17.60;50.80;;;;;;4956427;28;20221;-91
2022/05/02 04:42:05;;;;;;;1.40;1.30;;;17.60;50.80;;;;;;4956502;28;20292;-91
2022/05/02 04:44:32;;;;;;;1.57;1.33;;;17.60;50.80;;;;;;4972996;28;20232;-91
2022/05/02 04:46:58;;;;;;;1.57;1.47;;;17.60;50.80;;;;;;4957713;28;20188;-91
2022/05/02 04:49:24;;;;;;;1.50;1.40;;;17.60;50.80;;;;;;4956209;28;20222;-91
2022/05/02 04:51:50;;;;;;;2.07;1.53;;;17.60;50.80;;;;;;4955751;28;20327;-91
2022/05/02 04:54:15;;;;;;;1.87;1.53;;;17.60;50.80;;;;;;4955848;28;20212;-91
2022/05/02 04:56:41;;;;;;;1.57;1.47;;;17.60;50.80;;;;;;4971769;28;20237;-91
2022/05/02 04:59:07;;;;;;;1.93;1.37;;;17.60;50.80;;;;;;4956107;28;20231;-91
2022/05/02 05:01:32;;;;;;;1.37;1.27;;;17.60;50.80;;;;;;4972690;28;20182;-91
2022/05/02 05:03:58;;;;;;;2.10;1.50;;;17.60;50.80;;;;;;4956020;28;20179;-91
2022/05/02 05:06:24;;;;;;;2.23;1.47;;;17.60;50.80;;;;;;4955748;28;20384;-91
2022/05/02 05:08:50;;;;;;;1.83;1.40;;;17.60;50.70;;;;;;4954895;28;20218;-91
2022/05/02 05:11:19;;;;;;;3.13;1.47;;;17.50;50.70;;;;;;4955254;28;20466;-91
2022/05/02 05:17:10;;;;;;;1.30;1.20;;;17.60;50.70;;;;;;4972174;28;20170;-91
2022/05/02 05:20:13;;;;;;;1.70;1.60;;;17.50;50.60;;;;;;4971115;28;20181;-91
2022/05/02 05:23:06;;;;;;;1.50;1.40;;;17.50;50.60;;;;;;4953464;28;20182;-91
2022/05/02 05:25:49;;;;;;;1.70;1.60;;;17.60;50.70;;;;;;4970026;28;20183;-91
2022/05/02 05:28:45;;;;;;;1.40;1.30;;;17.60;50.60;;;;;;4969838;28;20205;-91
2022/05/02 05:31:43;;;;;;;1.50;1.40;;;17.60;50.60;;;;;;4968376;28;20208;-92
2022/05/02 05:34:34;;;;;;;1.40;1.30;;;17.60;50.60;;;;;;4952984;28;20606;-92
2022/05/02 05:37:24;;;;;;;1.53;1.40;;;17.60;50.60;;;;;;4924134;28;20351;-92
2022/05/02 05:40:08;;;;;;;1.47;1.37;;;17.60;50.50;;;;;;4967770;28;20174;-92
2022/05/02 05:42:52;;;;;;;1.50;1.30;;;17.60;50.50;;;;;;4952471;28;20555;-92
2022/05/02 05:45:34;;;;;;;1.40;1.30;;;17.60;50.50;;;;;;4970241;28;20173;-92
2022/05/02 05:48:59;;;;;;;1.40;1.30;;;17.60;50.50;;;;;;4968454;28;20173;-92
2022/05/02 05:51:43;;;;;;;1.67;1.57;;;17.60;50.40;;;;;;4926099;28;20468;-92
2022/05/02 05:54:28;;;;;;;1.57;1.47;;;17.60;50.40;;;;;;4971112;28;20422;-93
2022/05/02 05:57:41;;;;;;;1.70;1.40;;;17.60;50.40;;;;;;4953946;28;20447;-92
2022/05/02 06:00:12;;;;;;;1.50;1.40;;;17.60;50.40;;;;;;4876203;29;20212;-92
2022/05/02 06:02:56;;;;;;;1.60;1.50;;;17.70;50.30;;;;;;4945958;28;20320;-93
2022/05/02 06:05:23;;;;;;;1.40;1.30;;;17.70;50.30;;;;;;4967684;28;20174;-92
2022/05/02 06:07:51;;;;;;;1.67;1.40;;;17.70;50.20;;;;;;4952322;28;20177;-92
2022/05/02 06:10:19;;;;;;;1.63;1.53;;;17.80;50.30;;;;;;4950677;28;20205;-92
2022/05/02 06:12:45;;;;;;;1.60;1.50;;;17.80;50.20;;;;;;4951210;28;20207;-93
2022/05/02 06:20:45;;;;;;;1.77;1.67;;;17.90;50.40;;;;;;4969440;28;20182;-93
2022/05/02 06:23:13;;;;;;;2.00;1.80;;;17.90;50.40;;;;;;4952413;28;20578;-93
2022/05/02 06:25:39;;;;;;;2.03;1.83;;;17.90;50.40;;;;;;4952208;28;20182;-93
2022/05/02 06:28:07;;;;;;;2.17;1.97;;;18.00;50.50;;;;;;4950952;28;20509;-92
2022/05/02 06:30:35;;;;;;;2.30;1.77;;;18.00;50.40;;;;;;4953538;28;20456;-93
2022/05/02 06:33:11;;;;;;;2.20;2.00;;;18.10;50.40;;;;;;4953557;28;20171;-93
2022/05/02 06:35:52;;;;;;;2.20;1.80;;;18.20;50.40;;;;;;4953254;28;20191;-93
2022/05/02 06:38:44;;;;;;;2.80;2.00;;;18.20;50.20;;;;;;4954150;28;20214;-92
2022/05/02 06:41:40;;;;;;;2.27;1.80;;;18.20;50.20;;;;;;4952006;28;20175;-93
2022/05/02 06:44:19;;;;;;;2.63;2.13;;;18.20;50.20;;;;;;4952004;28;20548;-93
2022/05/02 06:46:47;;;;;;;3.57;2.07;;;18.30;50.10;;;;;;4950489;28;20188;-93
2022/05/02 06:49:16;;;;;;;2.33;1.87;;;18.30;50.10;;;;;;4969443;28;20305;-93
2022/05/02 06:51:48;;;;;;;3.27;2.10;;;18.40;50.00;;;;;;4952812;28;20182;-93
2022/05/02 06:54:52;;;;;;;4.40;2.53;;;18.70;49.60;;;;;;4951373;28;20174;-93
2022/05/02 06:57:57;;;;;;;2.37;2.10;;;18.80;49.30;;;;;;4952622;28;20171;-92
2022/05/02 07:00:23;;;;;;;3.00;2.00;;;18.80;49.40;;;;;;4940688;28;20601;-93
2022/05/02 07:03:18;;;;;;;3.07;1.93;;;18.80;49.40;;;;;;4954674;28;20284;-92
2022/05/02 07:05:47;;;;;;;4.20;2.50;;;18.80;49.50;;;;;;4971637;28;20182;-93
2022/05/02 07:51:47;;;;;;;3.93;2.40;;;20.30;47.30;;;;;;5076548;28;20549;-18
2022/05/02 07:54:19;;;;;;;5.40;2.90;;;20.50;47.40;;;;;;5091771;28;20190;-14
2022/05/02 07:56:50;;;;;;;4.97;2.83;;;20.70;47.10;;;;;;5072317;28;20179;-17
2022/05/02 07:59:23;;;;;;;2.97;2.60;;;20.90;46.90;;;;;;5072633;28;20739;-18
2022/05/02 08:01:49;;;;;;;4.00;2.60;;;21.10;46.80;;;;;;5084081;28;20280;-18
2022/05/02 08:04:15;;;;;;;3.47;2.90;;;21.20;46.60;;;;;;5091884;28;20292;-18
2022/05/02 08:07:09;;;;;;;3.17;2.70;;;21.20;46.40;;;;;;5071391;28;20657;-16
2022/05/02 08:09:38;;;;;;;4.67;2.83;;;21.30;46.30;;;;;;5071294;28;20466;-16
2022/05/02 08:12:36;;;;;;;3.23;2.60;;;21.50;46.20;;;;;;5070947;28;20632;-16
2022/05/02 08:15:01;;;;;;;4.50;2.80;;;21.50;46.10;;;;;;5071331;28;20195;-17
2022/05/02 08:17:54;;;;;;;3.53;2.70;;;21.60;46.00;;;;;;5071601;28;20180;-18
2022/05/02 08:20:58;;;;;;;4.00;2.60;;;21.70;45.90;;;;;;5070818;28;20678;-17
2022/05/02 08:29:51;;;;;;;3.20;2.90;;;22.00;45.50;;;;;;5070803;28;20206;-19
2022/05/02 08:32:22;;;;;;;3.57;2.77;;;22.20;45.40;;;;;;5069251;28;20207;-17
2022/05/02 08:35:14;;;;;;;3.90;2.70;;;22.20;45.30;;;;;;5070231;28;20203;-18
2022/05/02 08:37:58;;;;;;;3.00;2.60;;;22.30;45.20;;;;;;5070836;28;20558;-20
2022/05/02 08:40:24;;;;;;;3.20;2.67;;;22.40;45.10;;;;;;5070620;28;20191;-16
2022/05/02 08:43:08;;;;;;;3.53;2.77;;;22.50;45.10;;;;;;5071649;28;20172;-20
2022/05/02 08:46:01;;;;;;;5.27;2.60;;;22.50;45.00;;;;;;5071067;28;20228;-18
2022/05/02 08:48:48;;;;;;;3.58;2.80;;;22.60;44.90;;;;;;5069836;28;20178;-19
2022/05/02 08:51:44;;;;;;;3.57;2.60;;;22.70;44.80;;;;;;5065820;28;20307;-17
2022/05/02 08:54:28;;;;;;;4.53;2.70;;;22.80;44.70;;;;;;5058163;28;20160;-20
2022/05/02 08:56:57;;;;;;;4.30;2.63;;;22.90;44.60;;;;;;5057399;28;20337;-19
2022/05/02 08:59:36;;;;;;;2.70;2.50;;;22.90;44.50;;;;;;5056926;28;20739;-20
2022/05/02 09:02:27;;;;;;;2.58;2.38;;;23.00;44.50;;;;;;5056675;28;20176;-20
2022/05/02 09:05:26;;;;;;;4.77;2.57;;;23.10;44.40;;;;;;5056216;28;20266;-20
2022/05/02 09:08:29;;;;;;;3.28;2.63;;;23.20;44.40;;;;;;5057029;28;20172;-19
2022/05/02 09:11:45;;;;;;;4.47;2.80;;;23.20;44.30;;;;;;5055696;28;20272;-21
2022/05/02 09:14:44;;;;;;;4.10;2.90;;;23.30;44.30;;;;;;5047378;28;20607;-22
2022/05/02 09:17:41;;;;;;;3.97;2.70;;;23.40;44.20;;;;;;5044497;28;20191;-22
2022/05/02 09:20:38;;;;;;;3.50;2.53;;;23.50;44.20;;;;;;5057029;28;20226;-20
2022/05/02 09:23:22;;;;;;;3.05;2.72;;;23.50;44.10;;;;;;5055448;28;20172;-21
2022/05/02 09:26:05;;;;;;;3.00;2.40;;;23.50;44.10;;;;;;5056362;28;20168;-20
2022/05/02 09:28:57;;;;;;;4.30;2.90;;;23.50;44.10;;;;;;5060919;28;20179;-20
2022/05/02 09:31:51;;;;;;;4.07;2.60;;;23.50;44.20;;;;;;5066929;28;20180;-21
2022/05/02 09:34:17;;;;;;;3.10;2.42;;;23.40;44.20;;;;;;5072656;28;20179;-23
2022/05/02 09:37:02;;;;;;;3.15;2.47;;;23.30;44.30;;;;;;5071056;28;20192;-22
2022/05/02 09:39:52;;;;;;;3.50;2.63;;;23.10;44.50;;;;;;5061974;28;20171;-22
2022/05/02 09:42:39;;;;;;;3.63;2.65;;;22.90;44.70;;;;;;5064064;28;20233;-20
2022/05/02 09:51:39;;;;;;;3.63;2.72;;;22.20;45.60;;;;;;5055775;28;20215;-20
2022/05/02 09:57:29;;;;;;;2.90;2.35;;;22.00;46.10;;;;;;5048780;28;20279;-20
2022/05/02 10:02:49;;;;;;;2.97;2.35;;;21.70;46.50;;;;;;5055243;28;20183;-22
2022/05/02 10:05:26;;;;;;;3.00;2.50;;;21.70;47.00;;;;;;5055671;28;20200;-21
2022/05/02 10:08:09;;;;;;;2.55;2.33;;;21.70;46.80;;;;;;5054793;28;20184;-22
2022/05/02 10:10:53;;;;;;;4.53;2.50;;;21.70;46.90;;;;;;5054528;28;20274;-21
2022/05/02 10:13:18;;;;;;;4.75;2.60;;;21.60;46.90;;;;;;5055698;28;20191;-19
2022/05/02 10:16:28;;;;;;;3.35;2.47;;;21.70;47.00;;;;;;5054772;28;20528;-21
2022/05/02 10:19:06;;;;;;;3.10;2.58;;;21.70;47.10;;;;;;5035011;28;20196;-19
2022/05/02 10:21:38;;;;;;;3.45;2.50;;;21.70;47.10;;;;;;5035299;28;20188;-19
2022/05/02 10:24:10;;;;;;;2.67;2.47;;;21.70;47.10;;;;;;5035214;28;20164;-22
2022/05/02 10:26:53;;;;;;;5.88;3.08;;;21.70;47.20;;;;;;5035382;28;20183;-22
2022/05/02 10:29:42;;;;;;;4.70;2.63;;;21.70;47.20;;;;;;5035386;28;20287;-21
2022/05/02 10:32:40;;;;;;;3.07;2.37;;;21.70;47.30;;;;;;5034619;28;20169;-19
2022/05/02 10:35:13;;;;;;;2.57;2.20;;;21.70;47.30;;;;;;5027566;28;20204;-21
2022/05/02 10:37:55;;;;;;;2.80;2.40;;;21.70;47.30;;;;;;5034263;28;20172;-20
2022/05/02 10:40:45;;;;;;;2.40;2.20;;;21.70;47.40;;;;;;5034152;28;20215;-20
2022/05/02 10:43:21;;;;;;;2.97;2.27;;;21.70;47.40;;;;;;5034425;28;20243;-19
2022/05/02 10:45:49;;;;;;;3.03;2.57;;;21.70;47.40;;;;;;5048909;28;20313;-18
2022/05/02 10:48:18;;;;;;;4.83;2.50;;;21.70;47.50;;;;;;5055961;28;20190;-19
2022/05/02 10:51:18;;;;;;;3.43;2.50;;;21.70;47.50;;;;;;5054099;28;20216;-20
2022/05/02 10:53:57;;;;;;;2.80;2.40;;;21.70;47.50;;;;;;5060552;28;20599;-20
2022/05/02 10:56:35;;;;;;;3.50;2.50;;;21.70;47.60;;;;;;5074532;28;20160;-20
2022/05/02 10:59:03;;;;;;;2.93;2.30;;;21.70;47.60;;;;;;5073836;28;20451;-19
2022/05/02 11:01:57;;;;;;;4.40;2.50;;;21.70;47.60;;;;;;5073639;28;20171;-18
2022/05/02 11:04:44;;;;;;;4.17;2.70;;;21.70;47.70;;;;;;5074906;28;20175;-21
2022/05/02 11:07:29;;;;;;;4.00;2.47;;;21.70;47.70;;;;;;5053384;28;20257;-21
2022/05/02 11:10:09;;;;;;;3.40;2.53;;;21.70;47.70;;;;;;5054366;28;20636;-20
2022/05/02 11:13:09;;;;;;;4.67;2.50;;;21.70;47.80;;;;;;5067530;28;20258;-20
2022/05/02 11:15:54;;;;;;;3.63;2.53;;;21.80;47.80;;;;;;5053045;28;20183;-22
2022/05/02 11:22:08;;;;;;;3.30;2.37;;;21.80;47.90;;;;;;5054268;28;20715;-21
2022/05/02 11:24:40;;;;;;;2.63;2.30;;;21.80;47.90;;;;;;5052046;28;20294;-19
2022/05/02 11:27:17;;;;;;;3.50;2.40;;;21.80;48.00;;;;;;5056392;28;20206;-22
2022/05/02 11:29:48;;;;;;;3.00;2.03;;;21.80;48.00;;;;;;5056439;28;20387;-20
2022/05/02 11:32:39;;;;;;;2.83;2.60;;;21.80;48.00;;;;;;5053752;28;20468;-21
2022/05/02 11:35:21;;;;;;;3.23;2.00;;;21.80;48.00;;;;;;5054424;28;20600;-22
2022/05/02 11:38:22;;;;;;;3.10;2.40;;;21.80;48.10;;;;;;5053682;28;20167;-21
2022/05/02 11:40:53;;;;;;;3.10;2.40;;;21.80;48.00;;;;;;5053988;28;20205;-20
2022/05/02 11:43:21;;;;;;;2.93;2.50;;;21.90;48.10;;;;;;5054085;28;20255;-19
2022/05/02 11:46:18;;;;;;;2.73;2.37;;;21.90;48.20;;;;;;5052652;28;20545;-18
2022/05/02 11:48:53;;;;;;;3.10;2.17;;;21.90;48.10;;;;;;5053809;28;20178;-20
2022/05/02 11:51:45;;;;;;;2.50;2.30;;;21.90;48.20;;;;;;5052517;28;20304;-19
2022/05/02 11:54:36;;;;;;;3.97;2.40;;;21.90;48.20;;;;;;5051694;28;20199;-18
2022/05/02 11:57:25;;;;;;;5.00;2.27;;;21.90;48.20;;;;;;5053351;28;20188;-19
2022/05/02 11:59:59;;;;;;;3.53;2.30;;;21.90;48.20;;;;;;5053316;28;20165;-18
2022/05/02 12:02:37;;;;;;;2.93;2.23;;;21.90;48.20;;;;;;5052683;28;20186;-20
2022/05/02 12:05:16;;;;;;;2.73;2.33;;;21.90;48.20;;;;;;5053300;28;20193;-22
2022/05/02 12:07:49;;;;;;;2.93;2.33;;;21.90;48.30;;;;;;5053003;28;20289;-19
2022/05/02 12:10:18;;;;;;;2.40;2.20;;;22.00;48.40;;;;;;5053278;28;20464;-17
2022/05/02 12:12:51;;;;;;;3.40;2.50;;;22.00;48.40;;;;;;5053363;28;20178;-19
2022/05/02 12:15:18;;;;;;;3.13;2.70;;;22.00;48.30;;;;;;5052530;28;20175;-19
2022/05/02 12:18:04;;;;;;;2.70;2.33;;;22.00;48.30;;;;;;5053423;28;20168;-21
2022/05/02 12:20:31;;;;;;;3.40;2.60;;;22.00;48.30;;;;;;5050781;28;20278;-19
2022/05/02 12:23:04;;;;;;;3.00;2.53;;;22.00;48.40;;;;;;5032383;28;20238;-20
2022/05/02 12:25:32;;;;;;;2.37;2.17;;;22.00;48.40;;;;;;5032811;28;20179;-19
2022/05/02 12:28:02;;;;;;;2.97;2.60;;;22.00;48.40;;;;;;5036324;28;20701;-18
2022/05/02 12:30:30;;;;;;;3.03;2.27;;;22.00;48.50;;;;;;5035892;28;20207;-17
2022/05/02 12:33:01;;;;;;;4.33;2.20;;;22.00;48.40;;;;;;5035969;28;20176;-18
2022/05/02 12:35:37;;;;;;;2.67;2.30;;;22.10;48.40;;;;;;5045892;28;20436;-17
2022/05/02 12:38:17;;;;;;;2.70;2.10;;;22.00;48.40;;;;;;5059429;28;20234;-19
2022/05/02 12:40:51;;;;;;;3.47;2.57;;;22.00;48.40;;;;;;5056043;28;20276;-20
2022/05/02 12:43:41;;;;;;;2.40;2.20;;;22.10;48.40;;;;;;5057246;28;20165;-21
2022/05/02 12:46:10;;;;;;;2.57;2.37;;;22.00;48.40;;;;;;5055545;28;20701;-16
2022/05/02 12:48:39;;;;;;;2.80;2.20;;;22.10;48.50;;;;;;5056178;28;20598;-18
2022/05/02 12:51:16;;;;;;;3.27;2.50;;;22.10;48.50;;;;;;5056979;28;20638;-18
2022/05/02 12:56:27;;;;;;;2.70;2.23;;;22.10;48.60;;;;;;5057064;28;20240;-18
2022/05/02 13:01:50;;;;;;;2.50;2.13;;;22.10;48.60;;;;;;5061761;28;20197;-19
2022/05/02 13:04:18;;;;;;;2.60;2.40;;;22.10;48.60;;;;;;5075765;28;20201;-17
2022/05/02 13:06:45;;;;;;;4.03;2.37;;;22.10;48.70;;;;;;5075408;28;20589;-19
2022/05/02 13:09:15;;;;;;;2.87;2.43;;;22.20;48.70;;;;;;5076242;28;20218;-22
2022/05/02 13:11:44;;;;;;;2.47;2.27;;;22.20;48.70;;;;;;5074422;28;20585;-18
2022/05/02 13:14:23;;;;;;;3.00;2.47;;;22.20;48.60;;;;;;5063688;28;20186;-20
2022/05/02 13:16:50;;;;;;;2.73;2.37;;;22.20;48.60;;;;;;5074896;28;20181;-18
2022/05/02 13:19:16;;;;;;;2.60;2.40;;;22.30;48.70;;;;;;5076173;28;20221;-18
2022/05/02 13:21:43;;;;;;;3.03;2.37;;;22.20;48.60;;;;;;5071204;28;20222;-18
2022/05/02 13:24:12;;;;;;;2.80;2.37;;;22.30;48.70;;;;;;5055258;28;20197;-20
2022/05/02 13:26:47;;;;;;;2.40;2.20;;;22.30;48.80;;;;;;5055924;28;20167;-18
2022/05/02 13:29:31;;;;;;;2.57;2.10;;;22.30;48.80;;;;;;5056017;28;20186;-18
2022/05/02 13:32:04;;;;;;;3.23;2.40;;;22.30;48.80;;;;;;5055675;28;20147;-20
2022/05/02 13:35:03;;;;;;;3.93;2.30;;;22.30;48.80;;;;;;5055495;28;20164;-19
2022/05/02 13:38:01;;;;;;;2.60;2.40;;;22.30;48.80;;;;;;5054585;28;20179;-19
2022/05/02 13:41:22;;;;;;;2.63;2.30;;;22.30;48.80;;;;;;5055587;28;20193;-19
2022/05/02 13:44:36;;;;;;;2.50;2.30;;;22.30;48.80;;;;;;5037592;28;20217;-18
2022/05/02 13:47:10;;;;;;;2.53;2.03;;;22.40;48.80;;;;;;5036046;28;20282;-19
2022/05/02 13:49:44;;;;;;;2.40;2.20;;;22.40;48.80;;;;;;5055055;28;20245;-20
2022/05/02 13:52:35;;;;;;;2.67;2.40;;;22.40;48.80;;;;;;5055372;28;20268;-19
2022/05/02 13:55:09;;;;;;;2.27;2.07;;;22.40;48.80;;;;;;5055914;28;20165;-21
2022/05/02 13:58:01;;;;;;;2.47;2.20;;;22.40;48.90;;;;;;5055639;28;20159;-19
2022/05/02 14:03:32;;;;;;;2.63;2.30;;;22.40;48.90;;;;;;5055296;28;20672;-20
2022/05/02 14:06:01;;;;;;;4.57;2.70;;;22.40;49.00;;;;;;5055458;28;20202;-17
2022/05/02 14:08:36;;;;;;;3.00;2.47;;;22.50;49.20;;;;;;5055007;28;20172;-18
2022/05/02 14:11:02;;;;;;;3.07;2.27;;;22.40;49.20;;;;;;5054943;28;20235;-21
2022/05/02 14:13:28;;;;;;;4.20;2.30;;;22.50;49.20;;;;;;5055338;28;20213;-18
2022/05/02 14:16:07;;;;;;;3.00;2.33;;;22.50;49.10;;;;;;5054880;28;20181;-18
2022/05/02 14:18:53;;;;;;;3.60;2.37;;;22.50;49.10;;;;;;5053958;28;20175;-19
2022/05/02 14:21:20;;;;;;;2.67;2.40;;;22.50;49.10;;;;;;5035363;28;20183;-18
2022/05/02 14:23:57;;;;;;;4.63;2.27;;;22.50;49.00;;;;;;5035353;28;20171;-21
2022/05/02 14:26:29;;;;;;;2.67;2.47;;;22.50;49.00;;;;;;5036427;28;20182;-18
2022/05/02 14:28:56;;;;;;;3.27;2.30;;;22.50;49.10;;;;;;5054156;28;20179;-19
2022/05/02 14:31:36;;;;;;;3.53;2.30;;;22.60;49.10;;;;;;5054356;28;20211;-19
2022/05/02 14:34:12;;;;;;;3.00;2.37;;;22.60;49.10;;;;;;5054061;28;20174;-20
2022/05/02 14:36:43;;;;;;;3.13;2.30;;;22.60;49.10;;;;;;5051504;28;20170;-21
2022/05/02 14:39:14;;;;;;;5.40;2.20;;;22.60;49.10;;;;;;5055606;28;20177;-18
2022/05/02 14:41:40;;;;;;;3.90;2.50;;;22.60;49.10;;;;;;5054747;28;20160;-18
2022/05/02 14:44:08;;;;;;;6.03;2.50;;;22.60;49.10;;;;;;5053682;28;20476;-20
2022/05/02 14:46:45;;;;;;;3.60;2.50;;;22.60;49.10;;;;;;5055418;28;20158;-18
2022/05/02 14:49:12;;;;;;;2.57;2.30;;;22.60;49.20;;;;;;5053357;28;20490;-19
2022/05/02 14:51:42;;;;;;;3.87;2.17;;;22.60;49.20;;;;;;5054556;28;20187;-18